createdAt,value
2019-01-06T00:00:37.076Z,98257.10
2019-01-06T00:01:24.309Z,98257.42
2019-01-06T00:03:11.519Z,98256.95
2019-01-06T00:03:44.542Z,98256.09
2019-01-06T00:04:18.717Z,98256.94
2019-01-06T00:05:05.211Z,98256.09
2019-01-06T00:05:36.816Z,98257.84
2019-01-06T00:06:14.205Z,98258.31
2019-01-06T00:06:51.444Z,98256.20
2019-01-06T00:07:28.618Z,98257.89
2019-01-06T00:08:15.086Z,98254.92
2019-01-06T00:08:56.608Z,98260.97
2019-01-06T00:09:29.606Z,98256.72
2019-01-06T00:10:03.703Z,98260.98
2019-01-06T00:10:38.802Z,98265.70
2019-01-06T00:11:16.165Z,98264.86
2019-01-06T00:11:48.599Z,98264.39
2019-01-06T00:12:24.860Z,98259.33
2019-01-06T00:13:06.394Z,98265.73
2019-01-06T00:13:47.912Z,98264.50
2019-01-06T00:14:20.122Z,98267.06
2019-01-06T00:14:56.743Z,98266.69
2019-01-06T00:15:43.222Z,98264.22
2019-01-06T00:16:28.664Z,98259.12
2019-01-06T00:17:15.132Z,98263.42
2019-01-06T00:17:49.549Z,98268.95
2019-01-06T00:18:37.969Z,98261.72
2019-01-06T00:19:12.355Z,98261.30
2019-01-06T00:19:47.583Z,98265.98
2019-01-06T00:20:37.925Z,98267.26
2019-01-06T00:21:12.180Z,98271.09
2019-01-06T00:21:49.620Z,98272.80
2019-01-06T00:22:40.970Z,98263.90
2019-01-06T00:23:27.551Z,98270.66
2019-01-06T00:24:04.739Z,98270.70
2019-01-06T00:24:42.944Z,98273.27
2019-01-06T00:25:15.463Z,98266.47
2019-01-06T00:25:47.547Z,98267.34
2019-01-06T00:26:19.620Z,98269.48
2019-01-06T00:26:53.063Z,98272.46
2019-01-06T00:27:42.321Z,98272.51
2019-01-06T00:28:32.014Z,98269.95
2019-01-06T00:29:03.610Z,98267.45
2019-01-06T00:29:50.096Z,98275.11
2019-01-06T00:30:27.661Z,98276.81
2019-01-06T00:31:01.765Z,98268.73
2019-01-06T00:31:33.358Z,98281.45
2019-01-06T00:32:23.599Z,98280.98
2019-01-06T00:33:15.027Z,98278.42
2019-01-06T00:33:51.647Z,98272.45
2019-01-06T00:34:38.843Z,98283.00
2019-01-06T00:35:14.953Z,98277.43
2019-01-06T00:36:03.249Z,98280.78
2019-01-06T00:36:45.566Z,98281.20
2019-01-06T00:37:22.894Z,98281.16
2019-01-06T00:38:11.235Z,98283.23
2019-01-06T00:39:56.468Z,98281.95
2019-01-06T00:40:30.975Z,98286.58
2019-01-06T00:41:10.269Z,98281.03
2019-01-06T00:41:57.652Z,98286.11
2019-01-06T00:42:29.246Z,98284.41
2019-01-06T00:43:15.722Z,98287.38
2019-01-06T00:43:53.067Z,98286.91
2019-01-06T00:44:24.676Z,98285.62
2019-01-06T00:44:56.270Z,98284.73
2019-01-06T00:45:30.718Z,98291.95
2019-01-06T00:46:06.706Z,98292.38
2019-01-06T00:46:38.303Z,98297.48
2019-01-06T00:47:19.829Z,98296.59
2019-01-06T00:47:57.098Z,98289.34
2019-01-06T00:48:34.405Z,98291.48
2019-01-06T00:49:21.650Z,98297.44
2019-01-06T00:50:11.099Z,98294.45
2019-01-06T00:51:41.471Z,98290.15
2019-01-06T00:52:19.800Z,98292.27
2019-01-06T00:52:52.809Z,98290.16
2019-01-06T00:53:30.933Z,98289.34
2019-01-06T00:54:17.439Z,98285.89
2019-01-06T00:55:01.785Z,98248.80
2019-01-06T00:55:33.878Z,98288.02
2019-01-06T00:56:08.112Z,98290.95
2019-01-06T00:56:55.501Z,98285.42
2019-01-06T00:57:32.661Z,98285.00
2019-01-06T00:58:09.884Z,98288.41
2019-01-06T00:58:43.282Z,98283.33
2019-01-06T00:59:15.518Z,98283.77
2019-01-06T00:59:47.124Z,98281.64
2019-01-06T01:00:24.672Z,98283.77
2019-01-06T01:01:01.925Z,98280.41
2019-01-06T01:01:33.995Z,98279.13
2019-01-06T01:02:11.435Z,98287.22
2019-01-06T01:02:50.573Z,98287.66
2019-01-06T01:03:24.007Z,98281.31
2019-01-06T01:04:10.714Z,98282.17
2019-01-06T01:04:43.064Z,98287.75
2019-01-06T01:05:20.336Z,98293.28
2019-01-06T01:06:08.631Z,98289.03
2019-01-06T01:06:46.014Z,98286.52
2019-01-06T01:07:23.238Z,98291.20
2019-01-06T01:08:00.389Z,98282.70
2019-01-06T01:08:39.443Z,98287.38
2019-01-06T01:09:16.774Z,98288.28
2019-01-06T01:09:50.033Z,98284.48
2019-01-06T01:10:27.352Z,98287.02
2019-01-06T01:11:18.757Z,98288.34
2019-01-06T01:11:52.230Z,98288.35
2019-01-06T01:12:30.527Z,98286.27
2019-01-06T01:13:06.798Z,98288.40
2019-01-06T01:13:57.325Z,98287.97
2019-01-06T01:15:42.611Z,98287.97
2019-01-06T01:16:26.026Z,98284.56
2019-01-06T01:17:07.547Z,98283.76
2019-01-06T01:17:54.825Z,98284.19
2019-01-06T01:18:45.234Z,98294.41
2019-01-06T01:19:22.418Z,98283.80
2019-01-06T01:20:09.729Z,98280.02
2019-01-06T01:20:47.946Z,98284.23
2019-01-06T01:21:24.188Z,98282.38
2019-01-06T01:22:09.558Z,98284.52
2019-01-06T01:22:47.000Z,98297.81
2019-01-06T01:23:24.108Z,98282.20
2019-01-06T01:23:56.576Z,98284.05
2019-01-06T01:24:33.739Z,98279.84
2019-01-06T01:25:13.914Z,98281.59
2019-01-06T01:26:05.296Z,98277.38
2019-01-06T01:26:48.347Z,98283.76
2019-01-06T01:27:24.836Z,98286.75
2019-01-06T01:27:59.349Z,98282.92
2019-01-06T01:28:37.240Z,98292.31
2019-01-06T01:29:14.617Z,98293.59
2019-01-06T01:29:51.909Z,98295.34
2019-01-06T01:30:23.525Z,98294.48
2019-01-06T01:31:09.903Z,98287.27
2019-01-06T01:31:44.021Z,98294.97
2019-01-06T01:32:34.260Z,98297.94
2019-01-06T01:33:06.335Z,98263.00
2019-01-06T01:33:41.971Z,98300.50
2019-01-06T01:34:16.158Z,98300.95
2019-01-06T01:34:52.245Z,98297.98
2019-01-06T01:35:27.836Z,98298.41
2019-01-06T01:36:05.189Z,98257.08
2019-01-06T01:36:57.539Z,98303.98
2019-01-06T01:37:31.623Z,98298.88
2019-01-06T01:38:18.911Z,98296.80
2019-01-06T01:39:05.399Z,98301.05
2019-01-06T01:39:51.883Z,98302.37
2019-01-06T01:40:43.337Z,98267.80
2019-01-06T01:41:15.789Z,98308.37
2019-01-06T01:41:51.182Z,98301.57
2019-01-06T01:42:28.453Z,98306.71
2019-01-06T01:43:14.927Z,98269.63
2019-01-06T01:44:49.883Z,98313.98
2019-01-06T01:45:21.970Z,98320.83
2019-01-06T01:45:59.204Z,98317.86
2019-01-06T01:46:30.794Z,98319.98
2019-01-06T01:47:17.994Z,98320.84
2019-01-06T01:47:55.064Z,98321.30
2019-01-06T01:48:28.405Z,98324.27
2019-01-06T01:49:05.688Z,98321.30
2019-01-06T01:49:40.872Z,98326.87
2019-01-06T01:50:27.351Z,98325.52
2019-01-06T01:51:04.499Z,98325.94
2019-01-06T01:51:50.985Z,98324.23
2019-01-06T01:52:28.446Z,98328.45
2019-01-06T01:53:02.665Z,98332.27
2019-01-06T01:53:39.980Z,98296.88
2019-01-06T01:54:28.312Z,98334.83
2019-01-06T01:55:03.752Z,98332.70
2019-01-06T01:55:37.123Z,98336.99
2019-01-06T01:56:09.338Z,98335.72
2019-01-06T01:56:46.592Z,98334.87
2019-01-06T01:57:18.896Z,98338.27
2019-01-06T01:58:03.225Z,98341.25
2019-01-06T01:58:45.651Z,98334.87
2019-01-06T01:59:22.955Z,98341.25
2019-01-06T02:00:09.440Z,98338.27
2019-01-06T02:01:44.772Z,98336.53
2019-01-06T02:02:32.067Z,98340.36
2019-01-06T02:03:09.450Z,98336.49
2019-01-06T02:03:42.730Z,98338.61
2019-01-06T02:04:29.194Z,98341.98
2019-01-06T02:05:06.597Z,98342.83
2019-01-06T02:05:57.912Z,98347.89
2019-01-06T02:06:35.564Z,98349.13
2019-01-06T02:07:11.714Z,98350.36
2019-01-06T02:07:58.196Z,98351.17
2019-01-06T02:08:44.682Z,98342.15
2019-01-06T02:09:18.939Z,98342.99
2019-01-06T02:09:53.069Z,98312.20
2019-01-06T02:10:24.683Z,98345.04
2019-01-06T02:11:06.211Z,98349.67
2019-01-06T02:11:52.724Z,98351.75
2019-01-06T02:12:41.061Z,98313.73
2019-01-06T02:13:16.175Z,98356.77
2019-01-06T02:13:50.299Z,98356.73
2019-01-06T02:14:36.764Z,98355.84
2019-01-06T02:15:12.013Z,98325.88
2019-01-06T02:15:44.099Z,98359.95
2019-01-06T02:16:21.387Z,98363.75
2019-01-06T02:16:53.772Z,98357.34
2019-01-06T02:17:30.929Z,98356.45
2019-01-06T02:18:18.168Z,98362.83
2019-01-06T02:18:50.535Z,98358.48
2019-01-06T02:19:25.891Z,98356.30
2019-01-06T02:20:13.147Z,98360.52
2019-01-06T02:21:02.505Z,98359.19
2019-01-06T02:21:53.093Z,98368.47
2019-01-06T02:22:42.423Z,98365.85
2019-01-06T02:23:14.018Z,98365.81
2019-01-06T02:24:05.450Z,98368.78
2019-01-06T02:25:39.360Z,98367.88
2019-01-06T02:26:11.423Z,98366.99
2019-01-06T02:27:02.785Z,98363.20
2019-01-06T02:27:38.283Z,98362.77
2019-01-06T02:28:27.640Z,98364.86
2019-01-06T02:29:05.712Z,98365.33
2019-01-06T02:29:42.853Z,98364.05
2019-01-06T02:30:20.231Z,98369.16
2019-01-06T02:30:55.408Z,98368.31
2019-01-06T02:31:31.517Z,98378.96
2019-01-06T02:32:09.107Z,98369.20
2019-01-06T02:32:46.339Z,98354.92
2019-01-06T02:33:20.425Z,98370.12
2019-01-06T02:33:57.654Z,98372.72
2019-01-06T02:34:44.926Z,98373.99
2019-01-06T02:35:22.199Z,98371.88
2019-01-06T02:35:57.289Z,98366.42
2019-01-06T02:36:44.736Z,98368.98
2019-01-06T02:37:19.170Z,98364.77
2019-01-06T02:38:07.456Z,98367.33
2019-01-06T02:38:45.714Z,98365.71
2019-01-06T02:39:17.326Z,98366.57
2019-01-06T02:39:54.720Z,98368.74
2019-01-06T02:40:26.319Z,98362.40
2019-01-06T02:41:03.607Z,98365.81
2019-01-06T02:41:55.087Z,98369.22
2019-01-06T02:43:31.054Z,98370.98
2019-01-06T02:44:20.444Z,98368.89
2019-01-06T02:44:52.626Z,98370.22
2019-01-06T02:45:42.993Z,98372.35
2019-01-06T02:46:29.474Z,98367.28
2019-01-06T02:47:04.735Z,98365.62
2019-01-06T02:47:36.825Z,98362.64
2019-01-06T02:48:26.251Z,98362.60
2019-01-06T02:49:03.389Z,98358.77
2019-01-06T02:49:37.917Z,98359.19
2019-01-06T02:50:24.390Z,98359.63
2019-01-06T02:51:02.053Z,98352.01
2019-01-06T02:51:53.334Z,98349.92
2019-01-06T02:52:28.426Z,98345.71
2019-01-06T02:53:15.707Z,98344.02
2019-01-06T02:53:53.066Z,98347.03
2019-01-06T02:54:24.674Z,98338.98
2019-01-06T02:54:59.028Z,98340.70
2019-01-06T02:55:49.450Z,98341.16
2019-01-06T02:56:25.641Z,98345.42
2019-01-06T02:57:12.132Z,98301.95
2019-01-06T02:57:49.272Z,98340.36
2019-01-06T02:58:28.361Z,98348.88
2019-01-06T02:59:05.592Z,98349.34
2019-01-06T02:59:45.782Z,98347.25
2019-01-06T03:00:22.950Z,98341.77
2019-01-06T03:01:00.169Z,98349.03
2019-01-06T03:01:37.370Z,98346.09
2019-01-06T03:02:09.699Z,98353.77
2019-01-06T03:02:47.087Z,98352.52
2019-01-06T03:03:33.558Z,98354.23
2019-01-06T03:04:11.851Z,98360.23
2019-01-06T03:04:48.967Z,98353.07
2019-01-06T03:05:34.293Z,98358.56
2019-01-06T03:06:11.557Z,98357.33
2019-01-06T03:06:48.730Z,98358.61
2019-01-06T03:07:27.861Z,98357.80
2019-01-06T03:08:05.050Z,98354.82
2019-01-06T03:08:42.279Z,98356.95
2019-01-06T03:09:14.350Z,98356.56
2019-01-06T03:10:04.568Z,98357.41
2019-01-06T03:11:40.456Z,98357.45
2019-01-06T03:12:17.819Z,98352.77
2019-01-06T03:13:04.329Z,98356.56
2019-01-06T03:13:38.658Z,98350.18
2019-01-06T03:14:25.924Z,98347.63
2019-01-06T03:15:01.021Z,98353.63
2019-01-06T03:15:37.574Z,98354.05
2019-01-06T03:16:14.797Z,98354.09
2019-01-06T03:16:52.055Z,98351.11
2019-01-06T03:17:43.477Z,98354.09
2019-01-06T03:18:26.845Z,98347.33
2019-01-06T03:19:15.096Z,98353.28
2019-01-06T03:19:48.570Z,98357.11
2019-01-06T03:20:35.051Z,98352.00
2019-01-06T03:21:12.430Z,98352.00
2019-01-06T03:21:49.644Z,98353.70
2019-01-06T03:22:22.081Z,98354.98
2019-01-06T03:23:11.547Z,98357.95
2019-01-06T03:23:43.149Z,98357.10
2019-01-06T03:24:29.635Z,98352.00
2019-01-06T03:25:04.164Z,98346.05
2019-01-06T03:25:51.426Z,98352.43
2019-01-06T03:26:28.680Z,98347.36
2019-01-06T03:27:16.961Z,98346.94
2019-01-06T03:27:54.233Z,98343.96
2019-01-06T03:28:29.313Z,98345.66
2019-01-06T03:29:06.700Z,98351.19
2019-01-06T03:29:38.781Z,98341.88
2019-01-06T03:30:15.969Z,98343.11
2019-01-06T03:30:50.054Z,98344.00
2019-01-06T03:31:33.413Z,98347.83
2019-01-06T03:32:06.771Z,98350.77
2019-01-06T03:32:53.255Z,98349.52
2019-01-06T03:33:35.579Z,98349.95
2019-01-06T03:34:12.060Z,98350.38
2019-01-06T03:34:48.521Z,98354.20
2019-01-06T03:35:21.975Z,98358.00
2019-01-06T03:35:53.588Z,98350.77
2019-01-06T03:36:30.828Z,98370.75
2019-01-06T03:37:17.314Z,98354.13
2019-01-06T03:38:51.543Z,98360.85
2019-01-06T03:39:28.002Z,98369.28
2019-01-06T03:40:16.349Z,98364.98
2019-01-06T03:40:48.875Z,98361.08
2019-01-06T03:41:22.880Z,98362.31
2019-01-06T03:42:00.110Z,98366.95
2019-01-06T03:42:36.577Z,98366.91
2019-01-06T03:43:13.844Z,98335.72
2019-01-06T03:43:46.852Z,98369.80
2019-01-06T03:44:24.123Z,98369.34
2019-01-06T03:45:01.254Z,98364.61
2019-01-06T03:45:38.377Z,98368.45
2019-01-06T03:46:19.892Z,98368.83
2019-01-06T03:46:57.288Z,98367.94
2019-01-06T03:47:31.698Z,98367.45
2019-01-06T03:48:03.279Z,98361.88
2019-01-06T03:48:49.767Z,98369.50
2019-01-06T03:50:35.828Z,98376.13
2019-01-06T03:51:09.382Z,98375.19
2019-01-06T03:51:41.834Z,98377.30
2019-01-06T03:52:13.444Z,98379.39
2019-01-06T03:52:53.716Z,98383.17
2019-01-06T03:53:41.142Z,98380.58
2019-01-06T03:54:18.529Z,98352.34
2019-01-06T03:55:09.820Z,98380.95
2019-01-06T03:55:58.255Z,98383.03
2019-01-06T03:56:31.609Z,98389.33
2019-01-06T03:57:07.757Z,98391.41
2019-01-06T03:57:50.165Z,98381.56
2019-01-06T03:58:39.463Z,98390.89
2019-01-06T04:00:14.740Z,98389.28
2019-01-06T04:00:46.341Z,98385.34
2019-01-06T04:01:21.360Z,98384.48
2019-01-06T04:01:58.651Z,98357.11
2019-01-06T04:02:46.856Z,98386.20
2019-01-06T04:03:19.939Z,98385.78
2019-01-06T04:03:57.236Z,98378.97
2019-01-06T04:04:47.528Z,98377.31
2019-01-06T04:05:20.897Z,98385.83
2019-01-06T04:06:05.236Z,98384.55
2019-01-06T04:06:39.807Z,98386.72
2019-01-06T04:07:27.176Z,98388.01
2019-01-06T04:08:08.692Z,98353.91
2019-01-06T04:08:45.969Z,98383.84
2019-01-06T04:09:19.336Z,98388.56
2019-01-06T04:09:55.560Z,98396.28
2019-01-06T04:10:40.000Z,98359.58
2019-01-06T04:11:17.339Z,98385.25
2019-01-06T04:12:09.405Z,98383.59
2019-01-06T04:12:58.673Z,98387.47
2019-01-06T04:13:31.203Z,98384.54
2019-01-06T04:14:04.548Z,98385.35
2019-01-06T04:14:38.116Z,98390.02
2019-01-06T04:15:13.172Z,98384.49
2019-01-06T04:16:00.406Z,98385.34
2019-01-06T04:16:36.899Z,98382.36
2019-01-06T04:17:11.369Z,98377.64
2019-01-06T04:17:48.639Z,98378.50
2019-01-06T04:18:23.123Z,98381.52
2019-01-06T04:19:12.590Z,98378.54
2019-01-06T04:19:49.867Z,98378.55
2019-01-06T04:20:40.321Z,98384.13
2019-01-06T04:21:26.793Z,98375.23
2019-01-06T04:22:02.358Z,98372.30
2019-01-06T04:22:51.685Z,98374.05
2019-01-06T04:23:39.123Z,98371.54
2019-01-06T04:24:12.512Z,98373.33
2019-01-06T04:24:45.619Z,98373.76
2019-01-06T04:25:17.857Z,98374.19
2019-01-06T04:26:07.278Z,98369.98
2019-01-06T04:26:42.356Z,98368.31
2019-01-06T04:27:16.895Z,98369.16
2019-01-06T04:27:52.056Z,98360.41
2019-01-06T04:28:26.259Z,98377.30
2019-01-06T04:29:03.512Z,98378.65
2019-01-06T04:29:40.720Z,98371.42
2019-01-06T04:30:22.272Z,98371.88
2019-01-06T04:31:04.726Z,98369.76
2019-01-06T04:31:54.144Z,98370.66
2019-01-06T04:32:31.368Z,98362.19
2019-01-06T04:33:20.758Z,98367.34
2019-01-06T04:33:57.773Z,98370.35
2019-01-06T04:34:45.040Z,98326.48
2019-01-06T04:36:26.311Z,98366.61
2019-01-06T04:37:00.786Z,98363.63
2019-01-06T04:37:38.119Z,98367.92
2019-01-06T04:38:09.715Z,98369.23
2019-01-06T04:38:43.925Z,98366.27
2019-01-06T04:39:21.192Z,98370.56
2019-01-06T04:39:58.426Z,98364.22
2019-01-06T04:40:46.699Z,98368.47
2019-01-06T04:41:24.134Z,98374.03
2019-01-06T04:42:01.357Z,98374.42
2019-01-06T04:42:42.869Z,98373.53
2019-01-06T04:43:29.342Z,98372.22
2019-01-06T04:45:01.502Z,98373.45
2019-01-06T04:45:40.662Z,98333.83
2019-01-06T04:46:14.256Z,98379.83
2019-01-06T04:46:50.477Z,98379.83
2019-01-06T04:47:22.070Z,98378.17
2019-01-06T04:47:59.299Z,98373.03
2019-01-06T04:48:33.328Z,98374.34
2019-01-06T04:49:20.541Z,98375.63
2019-01-06T04:50:09.891Z,98378.64
2019-01-06T04:50:44.993Z,98380.34
2019-01-06T04:51:34.304Z,98380.34
2019-01-06T04:52:20.779Z,98378.64
2019-01-06T04:53:09.194Z,98378.64
2019-01-06T04:53:41.403Z,98383.73
2019-01-06T04:54:18.687Z,98383.35
2019-01-06T04:54:58.736Z,98388.04
2019-01-06T04:55:40.232Z,98389.34
2019-01-06T04:56:13.744Z,98386.83
2019-01-06T04:57:05.073Z,98386.84
2019-01-06T04:57:41.198Z,98395.41
2019-01-06T04:58:18.379Z,98389.89
2019-01-06T04:59:04.863Z,98398.42
2019-01-06T04:59:42.220Z,98394.17
2019-01-06T05:00:20.342Z,98398.46
2019-01-06T05:00:58.698Z,98403.14
2019-01-06T05:01:32.132Z,98403.98
2019-01-06T05:02:06.358Z,98400.16
2019-01-06T05:02:40.624Z,98368.08
2019-01-06T05:03:18.755Z,98402.75
2019-01-06T05:03:58.038Z,98402.33
2019-01-06T05:04:41.281Z,98400.23
2019-01-06T05:05:29.502Z,98397.66
2019-01-06T05:06:11.024Z,98398.97
2019-01-06T05:06:44.195Z,98397.69
2019-01-06T05:07:31.631Z,98395.99
2019-01-06T05:08:22.051Z,98398.58
2019-01-06T05:08:59.451Z,98397.73
2019-01-06T05:09:42.614Z,98393.90
2019-01-06T05:10:19.808Z,98397.30
2019-01-06T05:10:54.834Z,98396.38
2019-01-06T05:11:26.441Z,98402.33
2019-01-06T05:11:58.530Z,98402.30
2019-01-06T05:12:30.135Z,98375.73
2019-01-06T05:13:22.697Z,98405.23
2019-01-06T05:13:57.951Z,98413.70
2019-01-06T05:14:33.145Z,98413.66
2019-01-06T05:15:11.189Z,98408.13
2019-01-06T05:15:58.472Z,98415.33
2019-01-06T05:16:30.900Z,98416.53
2019-01-06T05:17:12.438Z,98410.54
2019-01-06T05:17:44.852Z,98411.34
2019-01-06T05:18:35.245Z,98411.31
2019-01-06T05:19:25.631Z,98412.51
2019-01-06T05:20:02.850Z,98418.39
2019-01-06T05:20:52.148Z,98420.86
2019-01-06T05:21:41.418Z,98417.80
2019-01-06T05:22:18.870Z,98419.04
2019-01-06T05:22:50.461Z,98415.21
2019-01-06T05:23:25.890Z,98416.91
2019-01-06T05:24:13.166Z,98418.19
2019-01-06T05:25:51.173Z,98422.28
2019-01-06T05:26:28.358Z,98422.23
2019-01-06T05:27:10.643Z,98422.57
2019-01-06T05:27:42.241Z,98418.66
2019-01-06T05:28:16.383Z,98425.43
2019-01-06T05:28:48.838Z,98422.02
2019-01-06T05:29:26.396Z,98418.61
2019-01-06T05:30:12.875Z,98423.63
2019-01-06T05:30:56.290Z,98421.49
2019-01-06T05:31:33.450Z,98418.89
2019-01-06T05:32:20.772Z,98420.13
2019-01-06T05:33:10.083Z,98425.66
2019-01-06T05:33:47.312Z,98419.70
2019-01-06T05:34:19.415Z,98431.58
2019-01-06T05:34:56.487Z,98443.50
2019-01-06T05:35:33.794Z,98430.69
2019-01-06T05:36:11.150Z,98428.12
2019-01-06T05:36:46.578Z,98393.97
2019-01-06T05:37:26.658Z,98432.43
2019-01-06T05:37:59.176Z,98428.12
2019-01-06T05:38:49.484Z,98425.75
2019-01-06T05:39:39.829Z,98430.64
2019-01-06T05:41:24.944Z,98451.13
2019-01-06T05:42:07.309Z,98428.55
2019-01-06T05:42:44.442Z,98355.16
2019-01-06T05:43:21.586Z,98427.27
2019-01-06T05:44:13.808Z,98461.34
2019-01-06T05:44:53.079Z,98432.00
2019-01-06T05:45:35.393Z,98429.50
2019-01-06T05:46:22.716Z,98395.80
2019-01-06T05:47:09.204Z,98431.70
2019-01-06T05:47:46.463Z,98434.73
2019-01-06T05:49:25.861Z,98437.33
2019-01-06T05:49:58.062Z,98444.15
2019-01-06T05:50:45.478Z,98441.17
2019-01-06T05:51:23.749Z,98438.67
2019-01-06T05:52:01.088Z,98407.55
2019-01-06T05:52:49.415Z,98442.12
2019-01-06T05:53:22.860Z,98446.41
2019-01-06T05:54:00.254Z,98444.32
2019-01-06T05:54:32.646Z,98442.19
2019-01-06T05:55:24.087Z,98443.47
2019-01-06T05:56:11.474Z,98444.38
2019-01-06T05:56:57.946Z,98448.63
2019-01-06T05:57:39.458Z,98450.37
2019-01-06T05:58:15.623Z,98448.70
2019-01-06T05:58:52.849Z,98416.72
2019-01-06T05:59:37.290Z,98450.88
2019-01-06T06:00:14.450Z,98451.77
2019-01-06T06:01:01.684Z,98446.27
2019-01-06T06:01:48.160Z,98451.42
2019-01-06T06:02:30.620Z,98451.42
2019-01-06T06:03:20.074Z,98447.59
2019-01-06T06:04:01.596Z,98452.70
2019-01-06T06:04:50.796Z,98451.03
2019-01-06T06:05:24.140Z,98456.14
2019-01-06T06:05:57.482Z,98454.02
2019-01-06T06:06:31.971Z,98454.86
2019-01-06T06:07:13.496Z,98457.41
2019-01-06T06:07:59.974Z,98463.02
2019-01-06T06:08:46.493Z,98455.91
2019-01-06T06:10:30.805Z,98457.39
2019-01-06T06:11:20.080Z,98459.52
2019-01-06T06:12:06.469Z,98460.84
2019-01-06T06:12:40.877Z,98459.13
2019-01-06T06:13:12.952Z,98452.75
2019-01-06T06:13:48.450Z,98461.27
2019-01-06T06:14:20.620Z,98452.75
2019-01-06T06:15:08.807Z,98454.88
2019-01-06T06:15:46.036Z,98458.32
2019-01-06T06:16:36.216Z,98453.64
2019-01-06T06:17:27.478Z,98454.95
2019-01-06T06:18:05.481Z,98452.41
2019-01-06T06:18:49.319Z,98464.34
2019-01-06T06:20:35.589Z,98463.06
2019-01-06T06:21:11.811Z,98459.70
2019-01-06T06:21:43.410Z,98463.06
2019-01-06T06:22:16.754Z,98463.52
2019-01-06T06:22:48.830Z,98461.82
2019-01-06T06:23:21.023Z,98466.53
2019-01-06T06:23:58.215Z,98463.16
2019-01-06T06:24:35.643Z,98463.13
2019-01-06T06:25:11.162Z,98466.99
2019-01-06T06:25:57.641Z,98466.99
2019-01-06T06:26:35.867Z,98466.20
2019-01-06T06:27:28.227Z,98468.33
2019-01-06T06:28:05.446Z,98471.77
2019-01-06T06:28:39.844Z,98475.17
2019-01-06T06:29:25.155Z,98471.77
2019-01-06T06:29:57.503Z,98475.13
2019-01-06T06:30:32.591Z,98469.61
2019-01-06T06:31:21.426Z,98474.25
2019-01-06T06:32:11.874Z,98475.53
2019-01-06T06:32:43.465Z,98484.06
2019-01-06T06:33:19.900Z,98472.58
2019-01-06T06:34:07.183Z,98471.31
2019-01-06T06:34:44.359Z,98475.98
2019-01-06T06:35:21.705Z,98476.44
2019-01-06T06:35:54.223Z,98473.89
2019-01-06T06:36:31.574Z,98481.12
2019-01-06T06:37:18.060Z,98477.72
2019-01-06T06:37:56.277Z,98478.99
2019-01-06T06:38:34.034Z,98484.09
2019-01-06T06:39:20.916Z,98479.88
2019-01-06T06:39:58.094Z,98483.30
2019-01-06T06:40:35.336Z,98486.25
2019-01-06T06:41:12.538Z,98457.13
2019-01-06T06:42:00.836Z,98485.83
2019-01-06T06:42:42.363Z,98489.66
2019-01-06T06:43:16.471Z,98487.53
2019-01-06T06:43:50.915Z,98487.92
2019-01-06T06:44:28.168Z,98458.84
2019-01-06T06:45:14.660Z,98493.41
2019-01-06T06:45:48.737Z,98495.94
2019-01-06T06:46:39.044Z,98489.56
2019-01-06T06:48:15.037Z,98494.11
2019-01-06T06:48:46.630Z,98494.08
2019-01-06T06:49:31.944Z,98497.84
2019-01-06T06:50:20.331Z,98497.77
2019-01-06T06:51:01.851Z,98503.23
2019-01-06T06:51:37.141Z,98503.20
2019-01-06T06:52:09.617Z,98497.63
2019-01-06T06:52:56.076Z,98501.84
2019-01-06T06:53:48.269Z,98497.56
2019-01-06T06:54:19.884Z,98506.00
2019-01-06T06:55:12.154Z,98507.63
2019-01-06T06:55:43.746Z,98507.59
2019-01-06T06:56:15.329Z,98510.49
2019-01-06T06:56:46.926Z,98508.29
2019-01-06T06:57:37.256Z,98508.25
2019-01-06T06:58:23.816Z,98508.98
2019-01-06T06:59:11.142Z,98517.46
2019-01-06T06:59:47.705Z,98516.11
2019-01-06T07:00:19.832Z,98511.38
2019-01-06T07:00:54.345Z,98513.39
2019-01-06T07:01:42.125Z,98510.36
2019-01-06T07:02:18.816Z,98510.74
2019-01-06T07:02:52.801Z,98511.55
2019-01-06T07:03:40.001Z,98514.95
2019-01-06T07:04:17.408Z,98515.77
2019-01-06T07:04:49.474Z,98515.38
2019-01-06T07:05:32.981Z,98514.11
2019-01-06T07:06:18.368Z,98496.01
2019-01-06T07:07:06.693Z,98517.59
2019-01-06T07:07:44.040Z,98520.58
2019-01-06T07:08:16.407Z,98518.45
2019-01-06T07:09:02.924Z,98521.86
2019-01-06T07:09:40.239Z,98522.72
2019-01-06T07:10:31.560Z,98520.63
2019-01-06T07:11:05.680Z,98519.77
2019-01-06T07:11:57.030Z,98521.05
2019-01-06T07:13:30.141Z,98525.39
2019-01-06T07:14:22.456Z,98526.70
2019-01-06T07:15:57.494Z,98528.45
2019-01-06T07:16:29.564Z,98509.45
2019-01-06T07:17:03.084Z,98524.70
2019-01-06T07:17:40.366Z,98528.14
2019-01-06T07:18:15.435Z,98525.20
2019-01-06T07:18:52.728Z,98526.48
2019-01-06T07:19:24.802Z,98471.22
2019-01-06T07:19:56.416Z,98526.12
2019-01-06T07:20:33.705Z,98525.31
2019-01-06T07:21:05.836Z,98529.14
2019-01-06T07:21:54.200Z,98528.30
2019-01-06T07:22:45.695Z,98535.56
2019-01-06T07:23:20.905Z,98533.48
2019-01-06T07:23:55.313Z,98533.94
2019-01-06T07:24:29.456Z,98529.69
2019-01-06T07:25:15.938Z,98535.67
2019-01-06T07:26:04.326Z,98535.71
2019-01-06T07:26:39.560Z,98535.74
2019-01-06T07:27:26.898Z,98535.78
2019-01-06T07:28:04.234Z,98540.04
2019-01-06T07:28:41.424Z,98536.23
2019-01-06T07:29:28.656Z,98540.10
2019-01-06T07:30:06.003Z,98536.70
2019-01-06T07:30:52.538Z,98537.16
2019-01-06T07:31:29.877Z,98543.54
2019-01-06T07:32:05.954Z,98542.30
2019-01-06T07:32:43.188Z,98544.42
2019-01-06T07:33:20.618Z,98547.86
2019-01-06T07:33:57.851Z,98545.77
2019-01-06T07:34:35.083Z,98545.37
2019-01-06T07:35:23.342Z,98544.95
2019-01-06T07:36:54.885Z,98543.73
2019-01-06T07:37:28.962Z,98551.39
2019-01-06T07:38:06.644Z,98548.02
2019-01-06T07:38:38.237Z,98549.75
2019-01-06T07:39:15.520Z,98552.77
2019-01-06T07:39:52.869Z,98558.72
2019-01-06T07:40:39.352Z,98554.50
2019-01-06T07:41:14.427Z,98563.00
2019-01-06T07:41:50.618Z,98564.27
2019-01-06T07:42:37.090Z,98555.34
2019-01-06T07:43:09.190Z,98557.50
2019-01-06T07:43:43.276Z,98558.80
2019-01-06T07:44:30.760Z,98555.83
2019-01-06T07:45:19.031Z,98557.98
2019-01-06T07:45:56.202Z,98553.30
2019-01-06T07:46:48.658Z,98560.95
2019-01-06T07:47:24.093Z,98560.50
2019-01-06T07:47:59.221Z,98564.67
2019-01-06T07:48:38.373Z,98559.93
2019-01-06T07:49:16.631Z,98562.91
2019-01-06T07:49:48.257Z,98558.66
2019-01-06T07:50:20.809Z,98568.04
2019-01-06T07:50:58.023Z,98567.62
2019-01-06T07:51:45.469Z,98569.80
2019-01-06T07:52:17.133Z,98565.16
2019-01-06T07:52:51.317Z,98571.56
2019-01-06T07:53:30.573Z,98569.86
2019-01-06T07:54:12.216Z,98571.16
2019-01-06T07:54:43.824Z,98498.06
2019-01-06T07:55:33.261Z,98563.14
2019-01-06T07:56:20.701Z,98566.11
2019-01-06T07:57:10.079Z,98566.99
2019-01-06T07:57:44.261Z,98563.62
2019-01-06T07:58:19.540Z,98568.30
2019-01-06T07:58:52.741Z,98567.02
2019-01-06T07:59:39.229Z,98569.17
2019-01-06T08:00:31.619Z,98569.60
2019-01-06T08:01:13.951Z,98566.63
2019-01-06T08:01:47.128Z,98578.52
2019-01-06T08:02:23.082Z,98576.40
2019-01-06T08:03:09.554Z,98574.70
2019-01-06T08:03:46.909Z,98579.80
2019-01-06T08:04:24.241Z,98572.58
2019-01-06T08:04:55.882Z,98574.28
2019-01-06T08:05:37.399Z,98578.95
2019-01-06T08:06:14.432Z,98572.09
2019-01-06T08:06:50.755Z,98575.92
2019-01-06T08:07:22.382Z,98544.20
2019-01-06T08:07:59.772Z,98578.39